createdAt,value
2016-08-02T00:01:22.159Z,84.54
2016-08-02T00:16:24.675Z,84.81
2016-08-02T00:31:22.211Z,85.55
2016-08-02T00:46:17.696Z,85.46
2016-08-02T01:01:17.644Z,85.24
2016-08-02T01:16:17.646Z,85.15
2016-08-02T01:31:22.682Z,84.89
2016-08-02T01:46:22.757Z,84.76
2016-08-02T02:01:24.223Z,85.74
2016-08-02T02:16:17.632Z,85.34
2016-08-02T02:31:25.858Z,85.1
2016-08-02T02:46:28.591Z,85.18
2016-08-02T03:01:19.652Z,85.13
2016-08-02T03:16:23.971Z,85.59
2016-08-02T03:31:22.266Z,86.01
2016-08-02T03:46:17.670Z,85.99
2016-08-02T04:01:17.726Z,87.12
2016-08-02T04:16:17.665Z,87.88
2016-08-02T04:31:17.677Z,88.31
2016-08-02T04:46:22.281Z,88.61
2016-08-02T05:01:17.746Z,88.46
2016-08-02T05:16:17.706Z,88.17
2016-08-02T05:31:25.825Z,88.88
2016-08-02T05:46:23.956Z,88.62
2016-08-02T06:01:23.977Z,88.51
2016-08-02T06:16:36.774Z,87.77
2016-08-02T06:31:19.746Z,88.3
2016-08-02T06:46:23.881Z,88.56
2016-08-02T07:01:23.922Z,88.36
2016-08-02T07:16:19.779Z,89.12
2016-08-02T07:31:19.784Z,88.68
2016-08-02T07:46:23.897Z,88.87
2016-08-02T08:01:24.049Z,88.81
2016-08-02T08:16:21.285Z,88.76
2016-08-02T08:31:23.999Z,88.04
2016-08-02T08:46:22.395Z,87.84
2016-08-02T09:01:17.799Z,88.06
2016-08-02T09:16:22.812Z,88.29
2016-08-02T09:31:24.116Z,89.44
2016-08-02T09:46:26.143Z,90.69
2016-08-02T10:01:17.829Z,90.41
2016-08-02T10:16:17.841Z,90.09
2016-08-02T10:31:17.898Z,90.84
2016-08-02T10:46:17.860Z,90.95
2016-08-02T11:01:17.868Z,91.34
2016-08-02T11:16:17.879Z,90.96
2016-08-02T11:31:19.596Z,90.68
2016-08-02T11:46:17.904Z,90.36
2016-08-02T12:01:17.905Z,89.83
2016-08-02T12:16:17.902Z,90.39
2016-08-02T12:31:17.928Z,90.32
2016-08-02T12:46:22.587Z,90.15
2016-08-02T13:01:17.936Z,90.58
2016-08-02T13:16:17.957Z,89.53
2016-08-02T13:31:22.556Z,87.93
2016-08-02T13:46:32.649Z,85.95
2016-08-02T14:01:24.185Z,85.61
2016-08-02T14:16:22.591Z,84.83
2016-08-02T14:31:22.582Z,85.84
2016-08-02T14:46:18.003Z,82.63
2016-08-02T15:01:23.006Z,84.19
2016-08-02T15:16:18.022Z,85.3
2016-08-02T15:31:26.155Z,85.53
2016-08-02T15:46:36.651Z,85.41
2016-08-02T16:01:26.219Z,86.18
2016-08-02T16:31:24.185Z,86.08
2016-08-02T16:46:24.218Z,86.87
2016-08-02T17:01:30.937Z,85.71
2016-08-02T17:16:18.096Z,85.32
2016-08-02T17:31:32.635Z,85.92
2016-08-02T17:46:18.121Z,86.83
2016-08-02T18:01:18.107Z,87.27
2016-08-02T18:16:18.184Z,86
2016-08-02T18:31:18.142Z,86.22
2016-08-02T18:46:18.162Z,86.64
2016-08-02T19:01:18.155Z,87.25
2016-08-02T19:16:23.430Z,87.2
2016-08-02T19:31:22.792Z,87.41
2016-08-02T19:46:20.373Z,87.84
2016-08-02T20:01:24.760Z,88.15
2016-08-02T20:16:18.251Z,88.36
2016-08-02T20:31:18.255Z,88.43
2016-08-02T20:46:18.216Z,88.45
2016-08-02T21:01:18.286Z,88.45
2016-08-02T21:16:24.446Z,88.25
2016-08-02T21:31:22.583Z,88.07
2016-08-02T21:46:18.260Z,88.28
2016-08-02T22:01:18.269Z,88.1
2016-08-02T22:16:18.269Z,88.55
2016-08-02T22:31:18.280Z,88.65
2016-08-02T22:46:23.279Z,89.39
2016-08-02T23:01:20.293Z,90.07
2016-08-02T23:16:35.553Z,90.31
2016-08-02T23:31:18.314Z,91.14
2016-08-02T23:46:18.326Z,91.38
